Time;durP1;ratioP1;P1;durP2;ratioP2;P2;SDS_P1;SDS_P2;PMS_P1;PMS_P2;Temp;Humidity;BMP_temperature;BMP_pressure;BME280_temperature;BME280_humidity;BME280_pressure;Samples;Min_cycle;Max_cycle;Signal;HPM_P1;HPM_P2
2023/10/10 00:00:37;;;;;;;21.20;6.70;;;;;;;;;;2073558;28;20052;-57
2023/10/10 00:01:43;;;;;;;14.10;5.05;;;;;;;;;;2074032;28;20045;-58
2023/10/10 00:02:44;;;;;;;19.58;5.80;;;;;;;;;;2073747;28;20046;-58
2023/10/10 00:03:45;;;;;;;20.98;5.78;;;;;;;;;;2073888;28;20386;-57
2023/10/10 00:04:47;;;;;;;16.73;5.82;;;;;;;;;;2073809;28;20053;-58
2023/10/10 00:05:47;;;;;;;20.58;4.93;;;;;;;;;;2073422;28;20421;-58
2023/10/10 00:06:49;;;;;;;17.10;5.40;;;;;;;;;;2073860;28;20077;-58
2023/10/10 00:07:50;;;;;;;16.35;4.97;;;;;;;;;;2073772;28;20037;-58
2023/10/10 00:08:52;;;;;;;17.60;5.80;;;;;;;;;;2073795;28;20038;-57
2023/10/10 00:09:53;;;;;;;23.85;5.57;;;;;;;;;;2073963;28;20068;-58
2023/10/10 00:10:55;;;;;;;14.98;5.18;;;;;;;;;;2073503;28;20042;-58
2023/10/10 00:11:57;;;;;;;23.20;6.45;;;;;;;;;;2073729;28;20042;-58
2023/10/10 00:13:01;;;;;;;22.42;6.07;;;;;;;;;;2073444;28;20061;-58
2023/10/10 00:14:05;;;;;;;17.00;5.72;;;;;;;;;;2073962;28;20025;-58
2023/10/10 00:15:12;;;;;;;17.00;5.55;;;;;;;;;;2073500;28;20046;-57
2023/10/10 00:16:23;;;;;;;17.20;5.72;;;;;;;;;;2073606;28;20061;-57
2023/10/10 00:17:34;;;;;;;14.05;5.35;;;;;;;;;;2073692;28;20406;-58
2023/10/10 00:18:38;;;;;;;21.95;5.50;;;;;;;;;;2073733;28;20050;-58
2023/10/10 00:19:54;;;;;;;19.83;6.22;;;;;;;;;;2073852;28;20398;-57
2023/10/10 00:21:06;;;;;;;24.00;6.00;;;;;;;;;;2073727;28;20580;-58
2023/10/10 00:22:07;;;;;;;18.15;5.88;;;;;;;;;;2073487;28;20042;-58
2023/10/10 00:23:11;;;;;;;22.52;6.40;;;;;;;;;;2073391;28;20050;-58
2023/10/10 00:24:12;;;;;;;16.83;5.35;;;;;;;;;;2073653;28;20034;-58
2023/10/10 00:25:13;;;;;;;17.13;5.80;;;;;;;;;;2073110;28;20049;-58
2023/10/10 00:26:21;;;;;;;24.17;6.55;;;;;;;;;;2073786;28;20046;-57
2023/10/10 00:27:23;;;;;;;20.38;5.63;;;;;;;;;;2073184;28;20049;-58
2023/10/10 00:28:27;;;;;;;25.70;6.00;;;;;;;;;;2073856;28;20038;-57
2023/10/10 00:29:28;;;;;;;15.63;4.80;;;;;;;;;;2073061;28;20050;-58
2023/10/10 00:30:34;;;;;;;22.02;5.78;;;;;;;;;;2072622;28;20419;-58
2023/10/10 00:31:38;;;;;;;21.60;5.80;;;;;;;;;;2074932;28;20042;-58
2023/10/10 00:32:45;;;;;;;14.73;5.65;;;;;;;;;;2074050;28;20053;-57
2023/10/10 00:33:47;;;;;;;19.20;5.65;;;;;;;;;;2074298;28;20537;-57
2023/10/10 00:34:48;;;;;;;17.38;5.50;;;;;;;;;;2066618;28;20470;-57
2023/10/10 00:35:49;;;;;;;14.25;4.97;;;;;;;;;;2066853;28;20395;-58
2023/10/10 00:36:58;;;;;;;18.45;4.47;;;;;;;;;;2075447;28;20049;-58
2023/10/10 00:37:59;;;;;;;;;;;;;;;;;;2075950;28;20037;-58
2023/10/10 00:40:25;;;;;;;16.23;5.40;;;;;;;;;;2074720;28;20048;-57
2023/10/10 00:41:26;;;;;;;22.17;6.10;;;;;;;;;;2074899;28;20030;-58
2023/10/10 00:42:36;;;;;;;20.58;5.80;;;;;;;;;;2075123;28;20054;-58
2023/10/10 00:43:37;;;;;;;19.17;4.57;;;;;;;;;;2075749;28;20037;-57
2023/10/10 00:44:38;;;;;;;11.77;4.70;;;;;;;;;;2074514;28;20065;-58
2023/10/10 00:45:38;;;;;;;16.83;4.72;;;;;;;;;;2073548;28;20184;-58
2023/10/10 00:46:39;;;;;;;20.80;6.07;;;;;;;;;;2065516;28;20089;-57
2023/10/10 00:47:44;;;;;;;15.77;5.72;;;;;;;;;;2073935;28;20038;-58
2023/10/10 00:48:44;;;;;;;15.45;5.60;;;;;;;;;;2074620;28;20030;-57
2023/10/10 00:49:47;;;;;;;21.27;5.40;;;;;;;;;;2073905;28;20413;-58
2023/10/10 00:51:05;;;;;;;15.95;4.85;;;;;;;;;;2074501;28;20033;-57
2023/10/10 00:52:12;;;;;;;21.08;6.10;;;;;;;;;;2075323;28;20038;-58
2023/10/10 00:53:15;;;;;;;16.15;5.40;;;;;;;;;;2075056;28;20041;-58
2023/10/10 00:55:24;;;;;;;14.52;5.28;;;;;;;;;;2074122;28;20060;-58
2023/10/10 00:56:29;;;;;;;14.40;4.78;;;;;;;;;;2073963;28;20038;-58
2023/10/10 00:57:35;;;;;;;21.65;5.40;;;;;;;;;;2074606;28;20044;-58
2023/10/10 00:58:37;;;;;;;16.15;4.80;;;;;;;;;;2066887;28;20042;-58
2023/10/10 00:59:43;;;;;;;23.27;6.57;;;;;;;;;;2066128;28;20046;-57
2023/10/10 01:00:47;;;;;;;18.80;5.25;;;;;;;;;;2074854;28;20030;-58
2023/10/10 01:01:49;;;;;;;16.42;4.55;;;;;;;;;;2074666;28;20045;-57
2023/10/10 01:03:01;;;;;;;15.18;5.43;;;;;;;;;;2075129;28;20033;-58
2023/10/10 01:04:01;;;;;;;21.88;5.15;;;;;;;;;;2075113;28;20042;-57
2023/10/10 01:05:11;;;;;;;17.92;5.50;;;;;;;;;;2074868;28;20034;-58
2023/10/10 01:06:24;;;;;;;20.38;5.05;;;;;;;;;;2074553;28;20049;-57
2023/10/10 01:07:28;;;;;;;17.75;5.22;;;;;;;;;;2074897;28;20046;-57
2023/10/10 01:08:32;;;;;;;22.35;5.40;;;;;;;;;;2073893;28;20042;-58
2023/10/10 01:09:33;;;;;;;11.88;4.60;;;;;;;;;;2066485;28;20093;-57
2023/10/10 01:10:43;;;;;;;16.40;5.55;;;;;;;;;;2066797;28;20047;-57
2023/10/10 01:11:48;;;;;;;16.65;5.18;;;;;;;;;;2074175;28;20169;-57
2023/10/10 01:12:49;;;;;;;17.05;5.53;;;;;;;;;;2073834;28;20528;-58
2023/10/10 01:13:52;;;;;;;17.17;5.88;;;;;;;;;;2074130;28;20092;-58
2023/10/10 01:14:57;;;;;;;16.58;5.65;;;;;;;;;;2074698;28;20022;-58
2023/10/10 01:16:04;;;;;;;19.42;5.88;;;;;;;;;;2074336;28;20109;-58
2023/10/10 01:17:06;;;;;;;18.35;4.82;;;;;;;;;;2073952;28;20061;-58
2023/10/10 01:18:13;;;;;;;16.50;5.88;;;;;;;;;;2074693;28;20061;-58
2023/10/10 01:19:17;;;;;;;18.30;5.15;;;;;;;;;;2074477;28;20046;-58
2023/10/10 01:20:18;;;;;;;16.45;5.10;;;;;;;;;;2074775;28;20040;-58
2023/10/10 01:21:32;;;;;;;20.15;6.20;;;;;;;;;;2074221;28;20065;-58
2023/10/10 01:22:37;;;;;;;26.17;6.25;;;;;;;;;;2068150;28;20042;-58
2023/10/10 01:23:38;;;;;;;17.50;5.93;;;;;;;;;;2066730;28;20394;-58
2023/10/10 01:24:41;;;;;;;15.98;4.95;;;;;;;;;;2073782;28;20065;-58
2023/10/10 01:25:48;;;;;;;25.08;5.75;;;;;;;;;;2074786;28;20037;-57
2023/10/10 01:26:52;;;;;;;15.88;5.45;;;;;;;;;;2074460;28;20034;-57
2023/10/10 01:27:55;;;;;;;20.42;5.80;;;;;;;;;;2073774;28;20057;-58
2023/10/10 01:28:59;;;;;;;22.67;6.50;;;;;;;;;;2074694;28;20044;-58
2023/10/10 01:30:43;;;;;;;18.02;5.43;;;;;;;;;;2073717;28;20050;-58
2023/10/10 01:31:24;;;;;;;22.35;5.45;;;;;;;;;;2074196;28;20100;-58
2023/10/10 01:32:25;;;;;;;21.77;5.85;;;;;;;;;;2074797;28;20050;-57
2023/10/10 01:33:35;;;;;;;19.27;5.55;;;;;;;;;;2074736;28;20394;-58
2023/10/10 01:34:45;;;;;;;20.73;6.07;;;;;;;;;;2074271;28;20044;-58
2023/10/10 01:35:46;;;;;;;16.88;5.38;;;;;;;;;;2075202;28;20037;-58
2023/10/10 01:36:50;;;;;;;17.30;5.00;;;;;;;;;;2074824;28;20497;-58
2023/10/10 01:37:54;;;;;;;17.88;5.63;;;;;;;;;;2074294;28;20577;-58
2023/10/10 01:39:07;;;;;;;15.18;4.55;;;;;;;;;;2075102;28;20040;-58
2023/10/10 01:40:16;;;;;;;17.77;5.43;;;;;;;;;;2074529;28;20049;-58
2023/10/10 01:41:24;;;;;;;19.33;5.57;;;;;;;;;;2075181;28;20045;-57
2023/10/10 01:42:31;;;;;;;18.38;5.93;;;;;;;;;;2074460;28;20029;-58
2023/10/10 01:43:32;;;;;;;18.00;5.13;;;;;;;;;;2074859;28;20034;-58
2023/10/10 01:44:36;;;;;;;23.83;5.30;;;;;;;;;;2074506;28;20050;-58
2023/10/10 01:45:41;;;;;;;15.30;5.13;;;;;;;;;;2074534;28;20050;-58
2023/10/10 01:46:42;;;;;;;19.02;5.65;;;;;;;;;;2074546;28;20042;-58
2023/10/10 01:47:56;;;;;;;21.05;5.63;;;;;;;;;;2073802;28;20042;-58
2023/10/10 01:48:56;;;;;;;16.05;5.65;;;;;;;;;;2073754;28;20049;-58
2023/10/10 01:49:58;;;;;;;17.27;5.15;;;;;;;;;;2074037;28;20049;-58
2023/10/10 01:51:00;;;;;;;21.55;5.55;;;;;;;;;;2074226;28;20060;-58
2023/10/10 01:52:00;;;;;;;12.07;4.70;;;;;;;;;;2074879;28;20025;-58
2023/10/10 01:53:05;;;;;;;18.30;5.28;;;;;;;;;;2065602;28;20049;-56
2023/10/10 01:54:11;;;;;;;15.80;4.70;;;;;;;;;;2066640;28;20042;-58
2023/10/10 01:55:12;;;;;;;13.82;4.65;;;;;;;;;;2074564;28;20471;-57
2023/10/10 01:56:13;;;;;;;20.73;5.32;;;;;;;;;;2074454;28;20128;-57
2023/10/10 01:57:24;;;;;;;13.18;4.90;;;;;;;;;;2074020;28;20045;-58
2023/10/10 01:58:25;;;;;;;20.00;5.25;;;;;;;;;;2066750;28;20065;-57
2023/10/10 01:59:35;;;;;;;18.17;4.72;;;;;;;;;;2066047;28;20046;-57
2023/10/10 02:00:36;;;;;;;17.08;4.85;;;;;;;;;;2067087;28;20434;-58
2023/10/10 02:01:38;;;;;;;14.82;4.82;;;;;;;;;;2073140;28;20054;-57
2023/10/10 02:02:41;;;;;;;17.55;4.90;;;;;;;;;;2074308;28;20394;-58
2023/10/10 02:03:42;;;;;;;24.73;5.25;;;;;;;;;;2073952;28;20425;-58
2023/10/10 02:04:43;;;;;;;19.02;5.28;;;;;;;;;;2073599;28;20042;-58
2023/10/10 02:05:45;;;;;;;16.75;4.72;;;;;;;;;;2074299;28;20117;-58
2023/10/10 02:06:47;;;;;;;17.48;5.30;;;;;;;;;;2074091;28;20038;-58
2023/10/10 02:07:53;;;;;;;15.77;5.10;;;;;;;;;;2073936;28;20038;-58
2023/10/10 02:08:56;;;;;;;20.23;4.97;;;;;;;;;;2066530;28;20067;-58
2023/10/10 02:10:13;;;;;;;19.27;5.95;;;;;;;;;;2073325;28;20045;-57
2023/10/10 02:11:14;;;;;;;21.27;5.03;;;;;;;;;;2068025;28;20540;-58
2023/10/10 02:12:22;;;;;;;22.52;5.43;;;;;;;;;;2073349;28;20065;-58
2023/10/10 02:13:22;;;;;;;17.33;5.93;;;;;;;;;;2074196;28;20042;-58
2023/10/10 02:14:25;;;;;;;17.80;6.25;;;;;;;;;;2065996;28;20042;-58
2023/10/10 02:15:26;;;;;;;20.15;5.43;;;;;;;;;;2072910;28;20054;-58
2023/10/10 02:16:35;;;;;;;21.77;6.45;;;;;;;;;;2074603;28;20073;-58
2023/10/10 02:17:39;;;;;;;26.98;5.75;;;;;;;;;;2074486;28;20044;-58
2023/10/10 02:18:44;;;;;;;19.50;5.93;;;;;;;;;;2074189;28;20044;-58
2023/10/10 02:19:53;;;;;;;20.33;6.05;;;;;;;;;;2074484;28;20490;-58
2023/10/10 02:20:54;;;;;;;20.88;5.35;;;;;;;;;;2073982;28;20045;-58
2023/10/10 02:22:11;;;;;;;15.85;5.60;;;;;;;;;;2073974;28;20506;-58
2023/10/10 02:23:31;;;;;;;19.00;6.03;;;;;;;;;;2074824;28;20037;-58
2023/10/10 02:26:36;;;;;;;17.50;6.13;;;;;;;;;;2074475;28;20029;-58
2023/10/10 02:27:54;;;;;;;19.13;6.30;;;;;;;;;;2073716;28;20034;-58
2023/10/10 02:29:47;;;;;;;18.05;5.63;;;;;;;;;;2074341;28;20082;-58
2023/10/10 02:30:22;;;;;;;17.35;5.68;;;;;;;;;;2066292;28;20053;-58
2023/10/10 02:31:28;;;;;;;18.13;5.60;;;;;;;;;;2074923;28;20382;-58
2023/10/10 02:32:29;;;;;;;20.25;6.20;;;;;;;;;;2074757;28;20042;-58
2023/10/10 02:33:31;;;;;;;18.17;5.65;;;;;;;;;;2074021;28;20042;-58
2023/10/10 02:34:34;;;;;;;23.42;6.50;;;;;;;;;;2074683;28;20030;-58
2023/10/10 02:35:47;;;;;;;22.45;5.68;;;;;;;;;;2074055;28;20041;-58
2023/10/10 02:37:08;;;;;;;21.23;5.45;;;;;;;;;;2066655;28;20501;-58
2023/10/10 02:38:12;;;;;;;18.92;6.60;;;;;;;;;;2073533;28;20049;-58
2023/10/10 02:40:16;;;;;;;18.05;6.15;;;;;;;;;;2073878;28;20041;-58
2023/10/10 02:42:36;;;;;;;19.80;6.70;;;;;;;;;;2074470;28;20025;-58
2023/10/10 02:43:45;;;;;;;20.92;6.25;;;;;;;;;;2074393;28;20044;-58
2023/10/10 02:44:58;;;;;;;17.73;5.85;;;;;;;;;;2073506;28;20038;-58
2023/10/10 02:45:59;;;;;;;24.02;6.80;;;;;;;;;;2072954;28;20406;-58
2023/10/10 02:47:01;;;;;;;17.27;5.75;;;;;;;;;;2065717;28;20035;-58
2023/10/10 02:48:07;;;;;;;18.38;6.22;;;;;;;;;;2073721;28;20068;-58
2023/10/10 02:50:39;;;;;;;16.05;5.78;;;;;;;;;;2074185;28;20041;-58
2023/10/10 02:51:48;;;;;;;16.20;5.15;;;;;;;;;;2074587;28;20034;-58
2023/10/10 02:52:55;;;;;;;16.17;5.95;;;;;;;;;;2074038;28;20049;-58
2023/10/10 02:54:07;;;;;;;14.68;5.70;;;;;;;;;;2066829;28;20042;-58
2023/10/10 02:55:14;;;;;;;24.00;6.32;;;;;;;;;;2065433;28;20473;-58
2023/10/10 02:56:18;;;;;;;19.20;7.45;;;;;;;;;;2073833;28;20038;-58
2023/10/10 02:58:28;;;;;;;22.50;7.00;;;;;;;;;;2073941;28;20053;-58
2023/10/10 02:59:32;;;;;;;16.92;5.78;;;;;;;;;;2074206;28;20394;-58
2023/10/10 03:00:34;;;;;;;16.83;6.07;;;;;;;;;;2074081;28;20042;-58
2023/10/10 03:01:56;;;;;;;22.02;6.55;;;;;;;;;;2074275;28;20037;-58
2023/10/10 03:02:58;;;;;;;21.05;6.82;;;;;;;;;;2073248;28;20614;-58
2023/10/10 03:03:59;;;;;;;18.73;6.10;;;;;;;;;;2065698;28;20046;-58
2023/10/10 03:06:06;;;;;;;21.50;6.65;;;;;;;;;;2065910;28;20048;-58
2023/10/10 03:07:07;;;;;;;19.65;6.53;;;;;;;;;;2073127;28;20054;-58
2023/10/10 03:08:13;;;;;;;22.73;6.78;;;;;;;;;;2073510;28;20109;-58
2023/10/10 03:10:39;;;;;;;25.13;7.05;;;;;;;;;;2067111;28;20430;-58
2023/10/10 03:11:53;;;;;;;21.75;7.07;;;;;;;;;;2073285;28;20042;-57
2023/10/10 03:13:05;;;;;;;22.92;7.28;;;;;;;;;;2073043;28;20090;-58
2023/10/10 03:14:19;;;;;;;23.80;6.45;;;;;;;;;;2073468;28;20045;-58
2023/10/10 03:17:44;;;;;;;17.45;7.13;;;;;;;;;;2065628;28;20064;-57
2023/10/10 03:21:50;;;;;;;18.73;6.60;;;;;;;;;;2063045;28;20236;-58
2023/10/10 03:25:28;;;;;;;19.35;6.80;;;;;;;;;;2066769;28;20050;-57
2023/10/10 03:27:37;;;;;;;20.30;6.30;;;;;;;;;;2065336;28;20533;-57
2023/10/10 03:29:03;;;;;;;18.77;6.57;;;;;;;;;;2073555;28;20034;-58
2023/10/10 03:31:24;;;;;;;20.30;6.97;;;;;;;;;;2073366;28;20049;-57
2023/10/10 03:32:32;;;;;;;19.92;6.88;;;;;;;;;;2073355;28;20057;-58
2023/10/10 03:34:57;;;;;;;16.27;6.80;;;;;;;;;;2073362;28;20041;-57
2023/10/10 03:36:05;;;;;;;25.95;7.80;;;;;;;;;;2067163;28;20049;-58
2023/10/10 03:37:28;;;;;;;21.15;7.35;;;;;;;;;;2073550;28;20504;-58
2023/10/10 03:39:54;;;;;;;24.40;7.00;;;;;;;;;;2043868;29;20040;-58
2023/10/10 05:24:29;;;;;;;16.88;7.63;;;;;;;;;;2075315;28;20026;-58
2023/10/10 05:25:32;;;;;;;24.98;7.93;;;;;;;;;;2074955;28;20092;-58
2023/10/10 05:26:33;;;;;;;21.58;8.00;;;;;;;;;;2074811;28;20046;-58
2023/10/10 05:27:41;;;;;;;23.50;7.65;;;;;;;;;;2074868;28;20046;-58
2023/10/10 05:28:45;;;;;;;21.58;7.63;;;;;;;;;;2075115;28;20037;-57
2023/10/10 05:29:49;;;;;;;24.23;8.60;;;;;;;;;;2074879;28;20057;-58
2023/10/10 05:30:55;;;;;;;20.60;7.88;;;;;;;;;;2075029;28;20045;-58
2023/10/10 05:31:59;;;;;;;18.92;7.80;;;;;;;;;;2074863;28;20050;-58
2023/10/10 05:33:03;;;;;;;16.98;7.45;;;;;;;;;;2074528;28;20379;-58
2023/10/10 05:34:04;;;;;;;19.52;7.20;;;;;;;;;;2075138;28;20046;-58
2023/10/10 05:35:11;;;;;;;22.73;8.60;;;;;;;;;;2074818;28;20378;-58
2023/10/10 05:36:13;;;;;;;25.15;8.05;;;;;;;;;;2074969;28;20462;-58
2023/10/10 05:37:15;;;;;;;18.58;6.60;;;;;;;;;;2074583;28;20052;-58
2023/10/10 05:38:16;;;;;;;28.55;8.00;;;;;;;;;;2074373;28;20053;-58
2023/10/10 05:39:21;;;;;;;19.65;7.82;;;;;;;;;;2074467;28;20046;-58
2023/10/10 05:40:22;;;;;;;19.05;7.50;;;;;;;;;;2075142;28;20034;-57
2023/10/10 05:41:25;;;;;;;20.50;8.10;;;;;;;;;;2074770;28;20034;-58
2023/10/10 05:42:33;;;;;;;20.88;7.55;;;;;;;;;;2074521;28;20057;-58
2023/10/10 05:43:34;;;;;;;19.60;7.18;;;;;;;;;;2075175;28;20046;-58
2023/10/10 05:44:38;;;;;;;29.30;7.93;;;;;;;;;;2074281;28;20041;-57
2023/10/10 05:45:39;;;;;;;26.60;8.23;;;;;;;;;;2074226;28;20046;-58
2023/10/10 05:46:40;;;;;;;27.40;8.18;;;;;;;;;;2074753;28;20046;-59
2023/10/10 05:47:41;;;;;;;24.73;8.00;;;;;;;;;;2074372;28;20041;-58
2023/10/10 05:48:41;;;;;;;20.35;7.70;;;;;;;;;;2074845;28;20463;-56
2023/10/10 05:49:42;;;;;;;20.85;7.55;;;;;;;;;;2074768;28;20398;-58
2023/10/10 05:50:43;;;;;;;27.90;8.27;;;;;;;;;;2074401;28;20046;-58
2023/10/10 05:51:44;;;;;;;26.52;8.27;;;;;;;;;;2074525;28;20057;-58
2023/10/10 05:52:45;;;;;;;22.20;7.82;;;;;;;;;;2074672;28;20042;-58
2023/10/10 05:53:46;;;;;;;22.88;7.97;;;;;;;;;;2074623;28;20114;-58
2023/10/10 05:54:46;;;;;;;23.05;8.40;;;;;;;;;;2074113;28;20033;-58
2023/10/10 05:55:51;;;;;;;18.92;7.53;;;;;;;;;;2074539;28;20042;-58
2023/10/10 05:56:52;;;;;;;28.05;7.25;;;;;;;;;;2074720;28;20385;-58
2023/10/10 05:57:53;;;;;;;19.98;7.45;;;;;;;;;;2074870;28;20038;-58
2023/10/10 05:58:53;;;;;;;21.98;8.00;;;;;;;;;;2075109;28;20084;-58
2023/10/10 05:59:54;;;;;;;18.30;7.38;;;;;;;;;;2074388;28;20041;-58
2023/10/10 06:00:55;;;;;;;18.02;6.93;;;;;;;;;;2074454;28;20053;-58
2023/10/10 06:01:55;;;;;;;20.42;7.80;;;;;;;;;;2074709;28;20049;-58
2023/10/10 06:02:56;;;;;;;22.17;7.80;;;;;;;;;;2074562;28;20030;-58
2023/10/10 06:03:57;;;;;;;17.95;8.10;;;;;;;;;;2074355;28;20038;-58
2023/10/10 06:04:58;;;;;;;23.60;7.65;;;;;;;;;;2074955;28;20037;-57
2023/10/10 06:06:00;;;;;;;22.80;7.22;;;;;;;;;;2074297;28;20470;-58
2023/10/10 06:07:04;;;;;;;22.88;7.32;;;;;;;;;;2074535;28;20041;-59
2023/10/10 06:08:05;;;;;;;22.27;7.40;;;;;;;;;;2074836;28;20030;-57
2023/10/10 06:09:06;;;;;;;15.43;6.60;;;;;;;;;;2074806;28;20037;-58
2023/10/10 06:10:10;;;;;;;16.90;6.85;;;;;;;;;;2074642;28;20046;-58
2023/10/10 06:11:15;;;;;;;20.55;7.18;;;;;;;;;;2074511;28;20052;-58
2023/10/10 06:12:16;;;;;;;27.52;8.75;;;;;;;;;;2074517;28;20045;-58
2023/10/10 06:13:16;;;;;;;21.67;7.40;;;;;;;;;;2074786;28;20030;-58
2023/10/10 06:14:20;;;;;;;20.65;6.80;;;;;;;;;;2074248;28;20195;-58
2023/10/10 06:15:21;;;;;;;18.15;6.90;;;;;;;;;;2073247;28;20053;-58
2023/10/10 06:16:23;;;;;;;17.33;6.53;;;;;;;;;;2074343;28;20497;-58
2023/10/10 06:17:24;;;;;;;20.73;8.02;;;;;;;;;;2074973;28;20038;-59
2023/10/10 06:18:25;;;;;;;23.33;8.40;;;;;;;;;;2074306;28;20050;-59
2023/10/10 06:19:26;;;;;;;18.02;7.75;;;;;;;;;;2074797;28;20434;-58
2023/10/10 06:20:26;;;;;;;20.63;6.90;;;;;;;;;;2074335;28;20413;-59
2023/10/10 06:21:29;;;;;;;19.00;7.50;;;;;;;;;;2074235;28;20153;-58
2023/10/10 06:22:30;;;;;;;25.67;7.57;;;;;;;;;;2074608;28;20034;-58
2023/10/10 06:23:33;;;;;;;20.30;7.68;;;;;;;;;;2073912;28;20052;-59
2023/10/10 06:24:34;;;;;;;22.02;7.78;;;;;;;;;;2074494;28;20033;-58
2023/10/10 06:25:36;;;;;;;24.13;7.70;;;;;;;;;;2074223;28;20048;-58
2023/10/10 06:26:37;;;;;;;22.88;8.05;;;;;;;;;;2074428;28;20034;-58
2023/10/10 06:27:40;;;;;;;21.13;7.43;;;;;;;;;;2074394;28;20034;-58
2023/10/10 06:28:47;;;;;;;28.58;7.20;;;;;;;;;;2074284;28;20042;-58
2023/10/10 06:29:48;;;;;;;25.58;8.02;;;;;;;;;;2074675;28;20045;-58
2023/10/10 06:30:52;;;;;;;20.08;7.53;;;;;;;;;;2074276;28;20038;-58
2023/10/10 06:31:53;;;;;;;23.45;6.88;;;;;;;;;;2074037;28;20057;-58
2023/10/10 06:33:08;;;;;;;14.00;7.30;;;;;;;;;;2074291;28;20060;-59
2023/10/10 06:34:22;;;;;;;17.73;6.53;;;;;;;;;;2073982;28;20065;-58
2023/10/10 06:37:27;;;;;;;21.50;7.05;;;;;;;;;;2074436;28;20057;-59
2023/10/10 06:38:28;;;;;;;19.63;6.90;;;;;;;;;;2074461;28;20037;-58
2023/10/10 06:39:35;;;;;;;18.65;7.18;;;;;;;;;;2074291;28;20050;-58
2023/10/10 06:40:52;;;;;;;16.30;6.18;;;;;;;;;;2074490;28;20026;-58
2023/10/10 06:41:54;;;;;;;20.90;6.47;;;;;;;;;;2074471;28;20372;-58
2023/10/10 06:42:58;;;;;;;21.98;7.22;;;;;;;;;;2074042;28;20042;-57
2023/10/10 06:43:59;;;;;;;17.75;6.70;;;;;;;;;;2073931;28;20046;-57
2023/10/10 06:45:22;;;;;;;21.83;6.70;;;;;;;;;;2073447;28;20044;-58
2023/10/10 06:46:23;;;;;;;22.58;6.30;;;;;;;;;;2073332;28;20054;-58
2023/10/10 06:47:28;;;;;;;21.30;6.53;;;;;;;;;;2074221;28;20061;-58
2023/10/10 06:48:40;;;;;;;21.85;6.85;;;;;;;;;;2074325;28;20045;-58
2023/10/10 06:49:46;;;;;;;21.38;7.15;;;;;;;;;;2074535;28;20374;-58
2023/10/10 06:50:49;;;;;;;20.60;7.35;;;;;;;;;;2073308;28;20042;-58
2023/10/10 06:51:55;;;;;;;23.40;6.88;;;;;;;;;;2073502;28;20053;-58
2023/10/10 06:52:55;;;;;;;18.27;6.68;;;;;;;;;;2074500;28;20076;-57
2023/10/10 06:53:56;;;;;;;24.02;7.72;;;;;;;;;;2073868;28;20053;-57
2023/10/10 06:54:57;;;;;;;18.55;7.40;;;;;;;;;;2073981;28;20042;-58
2023/10/10 06:56:14;;;;;;;18.00;6.72;;;;;;;;;;2073622;28;20429;-58
2023/10/10 06:57:18;;;;;;;23.17;7.80;;;;;;;;;;2074178;28;20034;-58
2023/10/10 06:58:19;;;;;;;17.85;6.43;;;;;;;;;;2074183;28;20048;-58
2023/10/10 06:59:25;;;;;;;24.90;7.38;;;;;;;;;;2074107;28;20040;-57
2023/10/10 07:00:32;;;;;;;20.75;6.57;;;;;;;;;;2073891;28;20054;-57
2023/10/10 07:01:39;;;;;;;18.67;6.93;;;;;;;;;;2074484;28;20498;-58
2023/10/10 07:02:40;;;;;;;21.35;7.63;;;;;;;;;;2073622;28;20045;-59
2023/10/10 07:03:46;;;;;;;16.00;7.13;;;;;;;;;;2074189;28;20029;-59
2023/10/10 07:04:53;;;;;;;23.52;6.78;;;;;;;;;;2074520;28;20037;-59
2023/10/10 07:05:54;;;;;;;22.98;6.82;;;;;;;;;;2073849;28;20041;-59
2023/10/10 07:07:00;;;;;;;17.92;6.50;;;;;;;;;;2073916;28;20057;-58
2023/10/10 07:08:12;;;;;;;21.48;6.95;;;;;;;;;;2074530;28;20038;-57
2023/10/10 07:09:29;;;;;;;22.42;7.47;;;;;;;;;;2073746;28;20053;-58
2023/10/10 07:10:33;;;;;;;22.98;6.90;;;;;;;;;;2074374;28;20057;-58
2023/10/10 07:11:34;;;;;;;19.55;7.53;;;;;;;;;;2074122;28;20042;-58
2023/10/10 07:12:34;;;;;;;17.73;7.65;;;;;;;;;;2074098;28;20474;-58
2023/10/10 07:13:36;;;;;;;22.55;7.20;;;;;;;;;;2074188;28;20078;-59
2023/10/10 07:14:45;;;;;;;20.10;6.50;;;;;;;;;;2073857;28;20030;-58
2023/10/10 07:15:53;;;;;;;26.55;7.47;;;;;;;;;;2073913;28;20050;-58
2023/10/10 07:16:56;;;;;;;18.33;6.78;;;;;;;;;;2074136;28;20028;-58
2023/10/10 07:18:14;;;;;;;22.90;7.00;;;;;;;;;;2074179;28;20030;-58
2023/10/10 07:19:26;;;;;;;22.40;7.15;;;;;;;;;;2074525;28;20033;-59
2023/10/10 07:21:46;;;;;;;19.52;6.85;;;;;;;;;;2074150;28;20037;-59
2023/10/10 07:22:47;;;;;;;18.73;7.13;;;;;;;;;;2074261;28;20096;-59
2023/10/10 07:24:05;;;;;;;18.55;7.35;;;;;;;;;;2074012;28;20072;-59
2023/10/10 07:25:17;;;;;;;21.70;7.07;;;;;;;;;;2074130;28;20030;-59
2023/10/10 07:26:20;;;;;;;20.83;7.00;;;;;;;;;;2073686;28;20045;-59
2023/10/10 07:27:30;;;;;;;19.98;7.68;;;;;;;;;;2074243;28;20049;-57
2023/10/10 07:28:47;;;;;;;18.20;6.88;;;;;;;;;;2074330;28;20048;-57
2023/10/10 07:30:50;;;;;;;19.40;6.93;;;;;;;;;;2073992;28;20064;-57
2023/10/10 07:31:53;;;;;;;18.98;6.97;;;;;;;;;;2073872;28;20038;-58
2023/10/10 07:32:53;;;;;;;21.60;7.20;;;;;;;;;;2073826;28;20366;-58
2023/10/10 07:33:55;;;;;;;25.13;6.13;;;;;;;;;;2073766;28;20048;-58
2023/10/10 07:34:58;;;;;;;16.60;7.25;;;;;;;;;;2073592;28;20050;-58
2023/10/10 07:36:00;;;;;;;27.13;7.75;;;;;;;;;;2072888;28;20046;-58
2023/10/10 07:37:10;;;;;;;18.80;7.45;;;;;;;;;;2073879;28;20061;-58
2023/10/10 07:38:10;;;;;;;16.67;6.57;;;;;;;;;;2074320;28;20037;-58
2023/10/10 07:40:31;;;;;;;24.58;7.22;;;;;;;;;;2073433;28;20030;-58
2023/10/10 07:41:35;;;;;;;15.45;6.78;;;;;;;;;;2073805;28;20045;-59
2023/10/10 07:42:37;;;;;;;20.35;7.55;;;;;;;;;;2073843;28;20049;-59
2023/10/10 07:43:38;;;;;;;17.63;6.45;;;;;;;;;;2073738;28;20053;-58
2023/10/10 07:44:41;;;;;;;20.67;7.35;;;;;;;;;;2073939;28;20038;-58
2023/10/10 07:49:03;;;;;;;29.50;6.68;;;;;;;;;;2073641;28;20045;-57
2023/10/10 07:50:08;;;;;;;20.20;6.47;;;;;;;;;;2073552;28;20458;-57
2023/10/10 07:51:09;;;;;;;19.33;6.45;;;;;;;;;;2073939;28;20034;-58
2023/10/10 07:52:16;;;;;;;24.30;6.25;;;;;;;;;;2073694;28;20072;-57
2023/10/10 07:53:17;;;;;;;20.38;5.78;;;;;;;;;;2073604;28;20050;-58
2023/10/10 07:54:29;;;;;;;21.90;6.18;;;;;;;;;;2073666;28;20053;-58
2023/10/10 07:55:34;;;;;;;20.67;6.07;;;;;;;;;;2073501;28;20042;-57
2023/10/10 07:56:44;;;;;;;22.85;5.93;;;;;;;;;;2072816;28;20049;-59
2023/10/10 07:57:59;;;;;;;22.08;5.88;;;;;;;;;;2074067;28;20036;-57
2023/10/10 07:59:00;;;;;;;16.38;6.18;;;;;;;;;;2072601;28;20547;-59
2023/10/10 08:00:01;;;;;;;21.02;6.43;;;;;;;;;;2073249;28;20116;-59
2023/10/10 08:01:10;;;;;;;19.10;6.22;;;;;;;;;;2073745;28;20042;-59
2023/10/10 08:03:47;;;;;;;23.50;6.57;;;;;;;;;;2044571;29;20047;-57
2023/10/10 08:04:51;;;;;;;19.73;5.40;;;;;;;;;;2048971;29;20581;-58
2023/10/10 08:05:52;;;;;;;19.25;5.63;;;;;;;;;;2051440;28;20050;-57
2023/10/10 08:06:52;;;;;;;16.45;5.70;;;;;;;;;;2073665;28;20386;-58
2023/10/10 08:07:53;;;;;;;19.38;5.30;;;;;;;;;;2073559;28;20042;-58
2023/10/10 08:10:14;;;;;;;18.52;5.60;;;;;;;;;;2073705;28;20038;-58
2023/10/10 08:11:24;;;;;;;18.75;5.22;;;;;;;;;;2073359;28;20046;-59
2023/10/10 08:12:29;;;;;;;22.30;6.47;;;;;;;;;;2073605;28;20056;-58
2023/10/10 08:13:32;;;;;;;16.38;5.25;;;;;;;;;;2073736;28;20462;-59
2023/10/10 08:14:33;;;;;;;16.52;6.05;;;;;;;;;;2073718;28;20034;-58
2023/10/10 08:15:35;;;;;;;20.55;6.10;;;;;;;;;;2072690;28;20478;-58
2023/10/10 08:16:36;;;;;;;17.35;5.53;;;;;;;;;;2073250;28;20054;-58
2023/10/10 08:17:37;;;;;;;20.55;5.63;;;;;;;;;;2073112;28;20046;-58
2023/10/10 08:19:50;;;;;;;24.65;5.93;;;;;;;;;;2073508;28;20584;-58
2023/10/10 08:21:52;;;;;;;21.13;5.43;;;;;;;;;;2072752;28;20046;-58
2023/10/10 08:22:58;;;;;;;22.73;5.93;;;;;;;;;;2072842;28;20046;-58
2023/10/10 08:23:59;;;;;;;17.83;5.53;;;;;;;;;;2073421;28;20046;-58
2023/10/10 08:25:00;;;;;;;23.63;5.63;;;;;;;;;;2073884;28;20034;-59
2023/10/10 08:26:00;;;;;;;17.92;5.65;;;;;;;;;;2073402;28;20045;-58
2023/10/10 08:27:09;;;;;;;20.20;5.93;;;;;;;;;;2073567;28;20037;-58
2023/10/10 08:28:10;;;;;;;;;;;;;;;;;;2074280;28;20462;-58
2023/10/10 08:29:11;;;;;;;15.43;4.70;;;;;;;;;;2073241;28;19909;-58
2023/10/10 08:30:13;;;;;;;21.00;5.60;;;;;;;;;;2073305;28;20061;-59
2023/10/10 08:31:14;;;;;;;16.67;5.22;;;;;;;;;;2073489;28;20417;-57
2023/10/10 08:32:14;;;;;;;16.30;5.03;;;;;;;;;;2072934;28;20049;-57
2023/10/10 08:33:15;;;;;;;19.60;5.05;;;;;;;;;;2073622;28;20046;-58
2023/10/10 08:34:16;;;;;;;19.48;5.18;;;;;;;;;;2073303;28;20471;-58
2023/10/10 08:35:17;;;;;;;19.63;5.72;;;;;;;;;;2073483;28;20400;-57
2023/10/10 08:36:23;;;;;;;15.75;5.13;;;;;;;;;;2072688;28;20053;-58
2023/10/10 08:37:27;;;;;;;17.75;5.93;;;;;;;;;;2073356;28;20038;-58
2023/10/10 08:38:28;;;;;;;17.05;5.85;;;;;;;;;;2073108;28;20168;-57
2023/10/10 08:39:35;;;;;;;19.15;5.28;;;;;;;;;;2073742;28;20049;-58
2023/10/10 08:40:36;;;;;;;13.82;4.90;;;;;;;;;;2073621;28;20030;-57
2023/10/10 08:41:38;;;;;;;21.85;5.50;;;;;;;;;;2073192;28;20526;-58
2023/10/10 08:42:38;;;;;;;16.60;5.05;;;;;;;;;;2073458;28;20048;-58
2023/10/10 08:43:39;;;;;;;16.30;4.93;;;;;;;;;;2072555;28;20050;-57
2023/10/10 08:44:41;;;;;;;15.15;4.90;;;;;;;;;;2072927;28;20034;-58